• Join FlightAware (Why Join?)
  • Login
  • US Flag 
Gobble Gobble! 
01:00AM EST


 

Airport Tracker/Info


-or-


 

Live Flight TrackerFlight Track Log ✈ AWI3859 ✈ 25-Aug-2013 ✈ KDCA - KCVG

Flight Track Log - Related Links

Times and Time Zones

All times are in EDT time to prevent confusion due to time zone crossing. See the AWI3859 flight status page for this flight to view local times or setup timezone preferences in your user account.

Time Position Orientation Groundspeed Altitude Reporting Facility
EDT Latitude Longitude Course Direction KTS MPH feet Rate Location/Type
05:18PM 38.8167 -77.0333 270° West 162 186 1,600  Level Potomac TRACON
05:20PM 38.7333 -77.1000 212° Southwest 265 305 5,800 2,220 Climbing Potomac TRACON
05:21PM 38.8500 -77.5436 270° West  Level FlightAware Approximate
05:21PM 38.7017 -77.2594 256° West 274 315 9,600  Level Washington Center
05:22PM 38.8501 -77.6712 270° West  Level FlightAware Approximate
05:22PM 38.7192 -77.3478 284° West 279 321 11,400  Level Washington Center
05:23PM 38.8500 -77.7987 270° West  Level FlightAware Approximate
05:23PM 38.7406 -77.4547 284° West 284 327 12,700  Level Washington Center
05:24PM 38.7575 -77.5722 281° West 318 366 13,600 900 Climbing Washington Center
05:25PM 38.7761 -77.7006 281° West 350 403 14,500 1,020 Climbing Washington Center
05:26PM 38.7989 -77.8292 283° West 369 425 15,700 1,200 Climbing Washington Center
05:27PM 38.8172 -77.9603 280° West 374 430 17,000 1,080 Climbing Washington Center
05:28PM 38.8375 -78.0889 281° West 374 430 17,900 900 Climbing Washington Center
05:29PM 38.8533 -78.2228 279° West 374 430 18,800 900 Climbing Washington Center
05:30PM 38.8519 -78.3744 269° West 374 430 19,700 840 Climbing Washington Center
05:31PM 38.8508 -78.5131 269° West 386 444 20,500 660 Climbing Washington Center
05:32PM 38.8500 -78.6278 270° West 392 451 21,100 960 Climbing Washington Center
05:33PM 38.8478 -78.7956 269° West 403 464 22,500 840 Climbing Washington Center
05:34PM 38.8439 -78.9419 268° West 403 464 22,900 600 Climbing Washington Center
05:35PM 38.8419 -79.0831 269° West 403 464 23,700 660 Climbing Washington Center
05:36PM 38.8417 -79.2325 270° West 403 464 24,300 540 Climbing Washington Center
05:37PM 38.8392 -79.3789 269° West 408 470 24,900 540 Climbing Washington Center
05:38PM 38.8364 -79.5306 269° West 413 475 25,400 480 Climbing Washington Center
05:39PM 38.8358 -79.6692 270° West 429 494 25,900 300 Climbing Washington Center
05:40PM 38.8306 -79.8236 268° West 434 499 26,000  Climbing Washington Center
05:41PM 38.8272 -79.9778 268° West 439 505 26,000  Level Washington Center
05:43PM 38.8181 -80.1833 267° West 427 491 26,000  Level Indianapolis Center
05:44PM 38.8142 -80.3297 268° West 414 476 26,000  Level Indianapolis Center
05:45PM 38.8103 -80.4761 268° West 411 473 26,000  Level Indianapolis Center
05:46PM 38.8061 -80.6183 268° West 403 464 26,000  Level Indianapolis Center
05:47PM 38.8008 -80.7892 268° West 401 461 26,000  Level Indianapolis Center
05:48PM 38.7964 -80.9292 268° West 395 455 26,000  Level Indianapolis Center
05:49PM 38.7747 -81.0694 259° West 401 461 26,000  Level Indianapolis Center
05:50PM 38.7531 -81.2086 259° West 399 459 26,000  Level Indianapolis Center
05:51PM 38.7311 -81.3467 259° West 396 456 26,000  Level Indianapolis Center
05:52PM 38.7081 -81.4894 258° West 400 460 26,000  Level Indianapolis Center
05:53PM 38.6811 -81.6522 258° West 401 461 26,000  Level Indianapolis Center
05:54PM 38.6603 -81.7806 258° West 401 461 26,000 -240 Level Indianapolis Center
05:55PM 38.6375 -81.9186 258° West 396 456 25,600 -720 Descending Indianapolis Center
05:56PM 38.6131 -82.0594 258° West 405 466 24,500 -780 Descending Indianapolis Center
05:57PM 38.5844 -82.2314 258° West 413 475 24,000 -300 Descending Indianapolis Center
05:58PM 38.5606 -82.3700 258° West 402 463 24,000  Level Indianapolis Center
05:59PM 38.5356 -82.5128 257° West 394 453 24,000  Level Indianapolis Center
06:00PM 38.5119 -82.6503 258° West 396 456 24,000 -540 Level Indianapolis Center
06:01PM 38.4867 -82.7894 257° West 402 463 22,900 -1,560 Descending Indianapolis Center
06:02PM 38.4633 -82.9294 258° West 403 464 20,800 -1,440 Descending Indianapolis Center
06:03PM 38.4603 -83.0864 269° West 381 438 20,000 -540 Descending Indianapolis Center
06:04PM 38.4850 -83.2139 284° West 370 426 19,800 -1,080 Descending Indianapolis Center
06:05PM 38.5078 -83.3394 283° West 365 420 17,800 -1,800 Descending Indianapolis Center
06:06PM 38.5306 -83.4642 283° West 362 417 16,200 -1,740 Descending Indianapolis Center
06:08PM 38.5522 -83.5822 283° West 347 399 14,300 -2,040 Descending Indianapolis Center
06:09PM 38.5783 -83.7172 284° West 338 389 12,000 -2,040 Descending Indianapolis Center
06:10PM 38.5981 -83.8308 283° West 330 380 10,200 -1,020 Descending Indianapolis Center
06:11PM 38.6214 -83.9406 285° West 322 371 10,000 -120 Descending Indianapolis Center
06:12PM 38.6658 -84.0228 305° West 316 364 10,000  Level Indianapolis Center
06:13PM 38.7247 -84.1364 304° West 319 367 10,000  Level Indianapolis Center
06:14PM 38.7747 -84.2311 304° West 321 369 10,000  Level Indianapolis Center
06:15PM 38.8231 -84.3264 303° West 320 368 10,000  Level Indianapolis Center
06:16PM 38.8725 -84.4217 304° West 319 367 10,000 -120 Level Indianapolis Center
06:17PM 38.9311 -84.5036 313° West 325 374 9,800 -1,020 Descending Indianapolis Center
06:18PM 39.0061 -84.5353 342° North 288 331 7,900 -2,040 Descending Indianapolis Center
06:19PM 39.0978 -84.5594 348° North 281 323 5,600 -1,980 Descending Indianapolis Center
06:20PM 39.1711 -84.5789 348° North 275 316 3,900 -1,140 Descending Indianapolis Center
06:21PM 39.2108 -84.6411 309° West 271 312 3,300 -720 Descending Indianapolis Center
06:22PM 39.1167 -84.6667 192° South 173 199 2,100 -840 Descending Cincinnati TRACON
06:23PM 39.0833 -84.6667 180° South 136 157 1,200 -900 Descending Cincinnati TRACON